sensor_id;sensor_type;location;lat;lon;timestamp;P1;durP1;ratioP1;P2;durP2;ratioP2
6725;SDS011;3400;48.506;11.692;2022-10-31T00:01:14;14.03;;;9.17;;
6725;SDS011;3400;48.506;11.692;2022-10-31T00:03:41;20.73;;;9.20;;
6725;SDS011;3400;48.506;11.692;2022-10-31T00:06:07;10.57;;;7.57;;
6725;SDS011;3400;48.506;11.692;2022-10-31T00:08:33;15.90;;;8.87;;
6725;SDS011;3400;48.506;11.692;2022-10-31T00:10:59;18.40;;;9.73;;
6725;SDS011;3400;48.506;11.692;2022-10-31T00:13:25;15.00;;;10.27;;
6725;SDS011;3400;48.506;11.692;2022-10-31T00:15:51;11.87;;;8.03;;
6725;SDS011;3400;48.506;11.692;2022-10-31T00:18:17;21.47;;;9.73;;
6725;SDS011;3400;48.506;11.692;2022-10-31T00:20:43;12.83;;;9.17;;
6725;SDS011;3400;48.506;11.692;2022-10-31T00:23:10;18.17;;;9.67;;
6725;SDS011;3400;48.506;11.692;2022-10-31T00:25:37;18.00;;;9.53;;
6725;SDS011;3400;48.506;11.692;2022-10-31T00:28:04;12.80;;;8.67;;
6725;SDS011;3400;48.506;11.692;2022-10-31T00:30:30;12.33;;;8.47;;
6725;SDS011;3400;48.506;11.692;2022-10-31T00:32:56;12.23;;;8.50;;
6725;SDS011;3400;48.506;11.692;2022-10-31T00:35:22;11.70;;;7.53;;
6725;SDS011;3400;48.506;11.692;2022-10-31T00:37:48;11.33;;;7.50;;
6725;SDS011;3400;48.506;11.692;2022-10-31T00:40:14;14.93;;;9.50;;
6725;SDS011;3400;48.506;11.692;2022-10-31T00:42:40;17.07;;;10.33;;
6725;SDS011;3400;48.506;11.692;2022-10-31T00:45:10;14.83;;;9.77;;
6725;SDS011;3400;48.506;11.692;2022-10-31T00:47:36;15.20;;;8.53;;
6725;SDS011;3400;48.506;11.692;2022-10-31T00:50:02;25.43;;;9.77;;
6725;SDS011;3400;48.506;11.692;2022-10-31T00:52:29;15.67;;;9.17;;
6725;SDS011;3400;48.506;11.692;2022-10-31T00:54:54;15.40;;;9.87;;
6725;SDS011;3400;48.506;11.692;2022-10-31T00:57:20;20.23;;;9.97;;
6725;SDS011;3400;48.506;11.692;2022-10-31T00:59:46;12.07;;;8.10;;
6725;SDS011;3400;48.506;11.692;2022-10-31T01:02:12;16.47;;;9.97;;
6725;SDS011;3400;48.506;11.692;2022-10-31T01:04:38;12.77;;;8.07;;
6725;SDS011;3400;48.506;11.692;2022-10-31T01:07:04;13.33;;;8.43;;
6725;SDS011;3400;48.506;11.692;2022-10-31T01:09:30;18.87;;;9.63;;
6725;SDS011;3400;48.506;11.692;2022-10-31T01:11:56;15.23;;;9.27;;
6725;SDS011;3400;48.506;11.692;2022-10-31T01:14:22;20.00;;;9.47;;
6725;SDS011;3400;48.506;11.692;2022-10-31T01:16:48;20.63;;;9.37;;
6725;SDS011;3400;48.506;11.692;2022-10-31T01:19:14;15.33;;;9.23;;
6725;SDS011;3400;48.506;11.692;2022-10-31T01:21:40;20.00;;;9.40;;
6725;SDS011;3400;48.506;11.692;2022-10-31T01:24:07;17.33;;;10.93;;
6725;SDS011;3400;48.506;11.692;2022-10-31T01:26:33;17.77;;;9.27;;
6725;SDS011;3400;48.506;11.692;2022-10-31T01:29:00;19.47;;;11.47;;
6725;SDS011;3400;48.506;11.692;2022-10-31T01:31:27;16.63;;;11.17;;
6725;SDS011;3400;48.506;11.692;2022-10-31T01:33:54;15.77;;;10.30;;
6725;SDS011;3400;48.506;11.692;2022-10-31T01:36:30;16.13;;;10.47;;
6725;SDS011;3400;48.506;11.692;2022-10-31T01:39:01;18.70;;;9.83;;
6725;SDS011;3400;48.506;11.692;2022-10-31T01:41:28;15.03;;;9.43;;
6725;SDS011;3400;48.506;11.692;2022-10-31T01:43:55;13.77;;;9.60;;
6725;SDS011;3400;48.506;11.692;2022-10-31T01:47:07;14.10;;;9.40;;
6725;SDS011;3400;48.506;11.692;2022-10-31T01:49:18;14.47;;;8.63;;
6725;SDS011;3400;48.506;11.692;2022-10-31T01:51:50;21.30;;;8.70;;
6725;SDS011;3400;48.506;11.692;2022-10-31T01:54:19;14.63;;;8.23;;
6725;SDS011;3400;48.506;11.692;2022-10-31T01:56:47;20.60;;;9.17;;
6725;SDS011;3400;48.506;11.692;2022-10-31T01:59:14;13.33;;;8.73;;
6725;SDS011;3400;48.506;11.692;2022-10-31T02:01:42;16.23;;;8.83;;
6725;SDS011;3400;48.506;11.692;2022-10-31T02:04:08;14.23;;;9.10;;
6725;SDS011;3400;48.506;11.692;2022-10-31T02:09:04;12.20;;;9.30;;
6725;SDS011;3400;48.506;11.692;2022-10-31T02:11:31;19.00;;;9.10;;
6725;SDS011;3400;48.506;11.692;2022-10-31T02:13:58;17.67;;;9.83;;
6725;SDS011;3400;48.506;11.692;2022-10-31T02:16:25;12.17;;;7.87;;
6725;SDS011;3400;48.506;11.692;2022-10-31T02:18:52;9.97;;;7.80;;
6725;SDS011;3400;48.506;11.692;2022-10-31T02:21:19;18.10;;;9.00;;
6725;SDS011;3400;48.506;11.692;2022-10-31T02:31:27;14.93;;;9.10;;
6725;SDS011;3400;48.506;11.692;2022-10-31T02:33:59;12.17;;;9.17;;
6725;SDS011;3400;48.506;11.692;2022-10-31T02:36:27;14.90;;;9.97;;
6725;SDS011;3400;48.506;11.692;2022-10-31T02:39:16;14.60;;;9.30;;
6725;SDS011;3400;48.506;11.692;2022-10-31T02:46:57;13.13;;;8.37;;
6725;SDS011;3400;48.506;11.692;2022-10-31T02:52:26;16.47;;;8.77;;
6725;SDS011;3400;48.506;11.692;2022-10-31T02:54:52;16.60;;;9.50;;
6725;SDS011;3400;48.506;11.692;2022-10-31T02:57:23;15.77;;;8.97;;
6725;SDS011;3400;48.506;11.692;2022-10-31T02:59:52;18.37;;;10.07;;
6725;SDS011;3400;48.506;11.692;2022-10-31T03:10:03;15.67;;;9.70;;
6725;SDS011;3400;48.506;11.692;2022-10-31T03:12:37;16.53;;;10.30;;
6725;SDS011;3400;48.506;11.692;2022-10-31T03:18:23;14.97;;;8.83;;
6725;SDS011;3400;48.506;11.692;2022-10-31T03:20:34;17.27;;;10.60;;
6725;SDS011;3400;48.506;11.692;2022-10-31T03:23:02;15.97;;;9.70;;
6725;SDS011;3400;48.506;11.692;2022-10-31T03:25:30;16.63;;;9.80;;
6725;SDS011;3400;48.506;11.692;2022-10-31T03:27:57;25.00;;;11.97;;
6725;SDS011;3400;48.506;11.692;2022-10-31T03:30:24;20.00;;;10.47;;
6725;SDS011;3400;48.506;11.692;2022-10-31T03:32:51;16.33;;;11.07;;
6725;SDS011;3400;48.506;11.692;2022-10-31T03:35:19;14.93;;;9.90;;
6725;SDS011;3400;48.506;11.692;2022-10-31T03:37:46;17.47;;;11.17;;
6725;SDS011;3400;48.506;11.692;2022-10-31T03:40:12;14.07;;;9.77;;
6725;SDS011;3400;48.506;11.692;2022-10-31T03:42:41;14.73;;;10.70;;
6725;SDS011;3400;48.506;11.692;2022-10-31T03:47:35;14.90;;;9.53;;
6725;SDS011;3400;48.506;11.692;2022-10-31T03:50:03;20.00;;;9.97;;
6725;SDS011;3400;48.506;11.692;2022-10-31T03:52:37;18.87;;;10.27;;
6725;SDS011;3400;48.506;11.692;2022-10-31T03:55:52;12.93;;;9.40;;
6725;SDS011;3400;48.506;11.692;2022-10-31T03:58:06;14.07;;;9.50;;
6725;SDS011;3400;48.506;11.692;2022-10-31T04:00:33;11.93;;;8.67;;
6725;SDS011;3400;48.506;11.692;2022-10-31T04:03:13;19.07;;;10.33;;
6725;SDS011;3400;48.506;11.692;2022-10-31T04:05:40;15.60;;;10.73;;
6725;SDS011;3400;48.506;11.692;2022-10-31T04:08:08;15.03;;;9.30;;
6725;SDS011;3400;48.506;11.692;2022-10-31T04:10:35;18.53;;;9.97;;
6725;SDS011;3400;48.506;11.692;2022-10-31T04:13:04;19.93;;;10.90;;
6725;SDS011;3400;48.506;11.692;2022-10-31T04:15:31;14.30;;;10.00;;
6725;SDS011;3400;48.506;11.692;2022-10-31T04:17:58;17.27;;;9.37;;
6725;SDS011;3400;48.506;11.692;2022-10-31T04:20:35;12.40;;;10.23;;
6725;SDS011;3400;48.506;11.692;2022-10-31T04:23:01;11.97;;;8.40;;
6725;SDS011;3400;48.506;11.692;2022-10-31T04:25:27;12.03;;;9.17;;
6725;SDS011;3400;48.506;11.692;2022-10-31T04:27:53;15.30;;;10.40;;
6725;SDS011;3400;48.506;11.692;2022-10-31T04:30:19;15.70;;;10.40;;
6725;SDS011;3400;48.506;11.692;2022-10-31T04:32:45;14.43;;;10.23;;
6725;SDS011;3400;48.506;11.692;2022-10-31T04:35:11;13.03;;;9.40;;
6725;SDS011;3400;48.506;11.692;2022-10-31T04:37:37;9.37;;;8.40;;
6725;SDS011;3400;48.506;11.692;2022-10-31T04:40:04;12.37;;;8.70;;
6725;SDS011;3400;48.506;11.692;2022-10-31T04:42:30;13.13;;;8.97;;
6725;SDS011;3400;48.506;11.692;2022-10-31T04:44:56;11.40;;;9.27;;
6725;SDS011;3400;48.506;11.692;2022-10-31T04:47:22;15.83;;;9.57;;
6725;SDS011;3400;48.506;11.692;2022-10-31T04:49:48;9.23;;;5.67;;
6725;SDS011;3400;48.506;11.692;2022-10-31T04:52:14;17.27;;;6.40;;
6725;SDS011;3400;48.506;11.692;2022-10-31T04:54:40;15.93;;;7.07;;
6725;SDS011;3400;48.506;11.692;2022-10-31T04:57:06;10.00;;;4.90;;
6725;SDS011;3400;48.506;11.692;2022-10-31T04:59:32;43.27;;;6.23;;
6725;SDS011;3400;48.506;11.692;2022-10-31T05:01:58;8.77;;;4.63;;
6725;SDS011;3400;48.506;11.692;2022-10-31T05:04:24;7.03;;;4.90;;
6725;SDS011;3400;48.506;11.692;2022-10-31T05:06:50;10.03;;;4.03;;
6725;SDS011;3400;48.506;11.692;2022-10-31T05:09:16;14.37;;;4.77;;
6725;SDS011;3400;48.506;11.692;2022-10-31T05:11:42;11.33;;;4.43;;
6725;SDS011;3400;48.506;11.692;2022-10-31T05:14:08;11.03;;;5.83;;
6725;SDS011;3400;48.506;11.692;2022-10-31T05:16:34;11.73;;;6.40;;
6725;SDS011;3400;48.506;11.692;2022-10-31T05:19:00;9.50;;;4.93;;
6725;SDS011;3400;48.506;11.692;2022-10-31T05:21:26;14.13;;;6.87;;
6725;SDS011;3400;48.506;11.692;2022-10-31T05:23:52;60.77;;;9.10;;
6725;SDS011;3400;48.506;11.692;2022-10-31T05:26:18;10.37;;;6.27;;
6725;SDS011;3400;48.506;11.692;2022-10-31T05:28:44;15.17;;;4.73;;
6725;SDS011;3400;48.506;11.692;2022-10-31T05:31:10;23.33;;;4.90;;
6725;SDS011;3400;48.506;11.692;2022-10-31T05:33:36;10.43;;;5.50;;
6725;SDS011;3400;48.506;11.692;2022-10-31T05:36:02;10.37;;;4.77;;
6725;SDS011;3400;48.506;11.692;2022-10-31T05:38:28;14.30;;;5.10;;
6725;SDS011;3400;48.506;11.692;2022-10-31T05:40:55;13.67;;;5.40;;
6725;SDS011;3400;48.506;11.692;2022-10-31T05:43:26;30.63;;;5.67;;
6725;SDS011;3400;48.506;11.692;2022-10-31T05:45:52;21.60;;;4.77;;
6725;SDS011;3400;48.506;11.692;2022-10-31T05:48:18;17.37;;;4.20;;
6725;SDS011;3400;48.506;11.692;2022-10-31T05:50:44;19.10;;;4.33;;
6725;SDS011;3400;48.506;11.692;2022-10-31T05:53:10;14.10;;;4.47;;
6725;SDS011;3400;48.506;11.692;2022-10-31T05:55:36;14.33;;;5.17;;
6725;SDS011;3400;48.506;11.692;2022-10-31T05:58:02;20.47;;;5.00;;
6725;SDS011;3400;48.506;11.692;2022-10-31T06:00:29;11.73;;;4.97;;
6725;SDS011;3400;48.506;11.692;2022-10-31T06:02:58;20.23;;;5.60;;
6725;SDS011;3400;48.506;11.692;2022-10-31T06:05:25;18.20;;;5.30;;
6725;SDS011;3400;48.506;11.692;2022-10-31T06:07:51;27.80;;;5.33;;
6725;SDS011;3400;48.506;11.692;2022-10-31T06:10:17;17.90;;;4.57;;
6725;SDS011;3400;48.506;11.692;2022-10-31T06:12:45;17.57;;;4.57;;
6725;SDS011;3400;48.506;11.692;2022-10-31T06:15:11;7.53;;;4.37;;
6725;SDS011;3400;48.506;11.692;2022-10-31T06:17:38;8.43;;;3.97;;
6725;SDS011;3400;48.506;11.692;2022-10-31T06:20:04;9.23;;;4.20;;
6725;SDS011;3400;48.506;11.692;2022-10-31T06:22:30;9.10;;;3.93;;
6725;SDS011;3400;48.506;11.692;2022-10-31T06:24:56;6.13;;;3.83;;
6725;SDS011;3400;48.506;11.692;2022-10-31T06:27:22;14.67;;;4.10;;
6725;SDS011;3400;48.506;11.692;2022-10-31T06:29:48;4.77;;;3.30;;
6725;SDS011;3400;48.506;11.692;2022-10-31T06:32:14;8.90;;;3.90;;
6725;SDS011;3400;48.506;11.692;2022-10-31T06:34:41;10.43;;;4.60;;
6725;SDS011;3400;48.506;11.692;2022-10-31T06:37:08;10.57;;;4.90;;
6725;SDS011;3400;48.506;11.692;2022-10-31T06:39:34;5.17;;;3.90;;
6725;SDS011;3400;48.506;11.692;2022-10-31T06:42:01;5.03;;;4.20;;
6725;SDS011;3400;48.506;11.692;2022-10-31T06:44:27;10.80;;;4.20;;
6725;SDS011;3400;48.506;11.692;2022-10-31T06:46:54;11.30;;;5.20;;
6725;SDS011;3400;48.506;11.692;2022-10-31T06:49:20;5.50;;;4.90;;
6725;SDS011;3400;48.506;11.692;2022-10-31T06:51:49;5.73;;;4.50;;
6725;SDS011;3400;48.506;11.692;2022-10-31T06:54:16;7.03;;;4.80;;
6725;SDS011;3400;48.506;11.692;2022-10-31T06:56:45;8.87;;;4.73;;
6725;SDS011;3400;48.506;11.692;2022-10-31T06:59:12;4.73;;;4.23;;
6725;SDS011;3400;48.506;11.692;2022-10-31T07:01:38;8.40;;;4.40;;
6725;SDS011;3400;48.506;11.692;2022-10-31T07:04:04;5.80;;;4.03;;
6725;SDS011;3400;48.506;11.692;2022-10-31T07:06:30;6.37;;;4.30;;
6725;SDS011;3400;48.506;11.692;2022-10-31T07:08:56;9.43;;;4.90;;
6725;SDS011;3400;48.506;11.692;2022-10-31T07:11:22;5.00;;;4.50;;
6725;SDS011;3400;48.506;11.692;2022-10-31T07:13:48;5.50;;;5.00;;
6725;SDS011;3400;48.506;11.692;2022-10-31T07:16:14;6.60;;;4.40;;
6725;SDS011;3400;48.506;11.692;2022-10-31T07:18:40;4.87;;;4.37;;
6725;SDS011;3400;48.506;11.692;2022-10-31T07:21:07;4.43;;;4.13;;
6725;SDS011;3400;48.506;11.692;2022-10-31T07:23:33;4.83;;;4.37;;
6725;SDS011;3400;48.506;11.692;2022-10-31T07:25:59;6.97;;;4.90;;
6725;SDS011;3400;48.506;11.692;2022-10-31T07:28:25;11.33;;;4.80;;
6725;SDS011;3400;48.506;11.692;2022-10-31T07:30:52;9.03;;;5.10;;
6725;SDS011;3400;48.506;11.692;2022-10-31T07:33:18;16.67;;;5.20;;
6725;SDS011;3400;48.506;11.692;2022-10-31T07:35:45;10.07;;;4.43;;
6725;SDS011;3400;48.506;11.692;2022-10-31T07:38:11;13.63;;;5.00;;
6725;SDS011;3400;48.506;11.692;2022-10-31T07:40:38;4.47;;;4.17;;
6725;SDS011;3400;48.506;11.692;2022-10-31T07:43:04;7.20;;;4.93;;
6725;SDS011;3400;48.506;11.692;2022-10-31T07:45:31;5.00;;;4.50;;
6725;SDS011;3400;48.506;11.692;2022-10-31T07:47:57;16.23;;;4.50;;
6725;SDS011;3400;48.506;11.692;2022-10-31T07:50:24;4.40;;;4.07;;
6725;SDS011;3400;48.506;11.692;2022-10-31T07:55:29;7.27;;;4.63;;
6725;SDS011;3400;48.506;11.692;2022-10-31T07:57:56;4.93;;;4.57;;
6725;SDS011;3400;48.506;11.692;2022-10-31T08:00:22;5.83;;;3.60;;
6725;SDS011;3400;48.506;11.692;2022-10-31T08:02:48;3.60;;;3.30;;
6725;SDS011;3400;48.506;11.692;2022-10-31T08:05:14;3.20;;;3.00;;
6725;SDS011;3400;48.506;11.692;2022-10-31T08:07:40;5.30;;;4.63;;
6725;SDS011;3400;48.506;11.692;2022-10-31T08:10:06;5.30;;;4.70;;
6725;SDS011;3400;48.506;11.692;2022-10-31T08:12:32;5.00;;;4.50;;
6725;SDS011;3400;48.506;11.692;2022-10-31T08:14:58;4.93;;;4.30;;
6725;SDS011;3400;48.506;11.692;2022-10-31T08:17:24;6.77;;;4.30;;
6725;SDS011;3400;48.506;11.692;2022-10-31T08:19:50;4.77;;;4.33;;
6725;SDS011;3400;48.506;11.692;2022-10-31T08:22:16;5.53;;;4.13;;
6725;SDS011;3400;48.506;11.692;2022-10-31T08:24:42;6.70;;;5.00;;
6725;SDS011;3400;48.506;11.692;2022-10-31T08:27:08;7.77;;;4.70;;
6725;SDS011;3400;48.506;11.692;2022-10-31T08:29:34;3.83;;;3.43;;
6725;SDS011;3400;48.506;11.692;2022-10-31T08:32:00;3.83;;;3.47;;
6725;SDS011;3400;48.506;11.692;2022-10-31T08:34:26;6.80;;;4.00;;
6725;SDS011;3400;48.506;11.692;2022-10-31T08:36:52;6.03;;;4.70;;
6725;SDS011;3400;48.506;11.692;2022-10-31T08:39:18;3.90;;;3.60;;
6725;SDS011;3400;48.506;11.692;2022-10-31T08:41:44;3.43;;;3.13;;
6725;SDS011;3400;48.506;11.692;2022-10-31T08:44:10;4.57;;;3.83;;
6725;SDS011;3400;48.506;11.692;2022-10-31T08:46:36;4.03;;;3.63;;
6725;SDS011;3400;48.506;11.692;2022-10-31T08:49:02;5.70;;;3.73;;
6725;SDS011;3400;48.506;11.692;2022-10-31T08:51:28;4.53;;;4.00;;
6725;SDS011;3400;48.506;11.692;2022-10-31T08:53:54;4.20;;;3.80;;
6725;SDS011;3400;48.506;11.692;2022-10-31T08:56:20;4.00;;;3.60;;
6725;SDS011;3400;48.506;11.692;2022-10-31T08:58:47;14.40;;;4.30;;
6725;SDS011;3400;48.506;11.692;2022-10-31T09:01:13;5.10;;;4.03;;
6725;SDS011;3400;48.506;11.692;2022-10-31T09:03:39;5.63;;;4.30;;
6725;SDS011;3400;48.506;11.692;2022-10-31T09:06:05;5.00;;;4.60;;
6725;SDS011;3400;48.506;11.692;2022-10-31T09:08:33;5.40;;;4.90;;
6725;SDS011;3400;48.506;11.692;2022-10-31T09:11:00;7.43;;;5.87;;
6725;SDS011;3400;48.506;11.692;2022-10-31T09:13:26;8.67;;;5.80;;
6725;SDS011;3400;48.506;11.692;2022-10-31T09:15:53;7.77;;;5.67;;
6725;SDS011;3400;48.506;11.692;2022-10-31T09:18:21;11.00;;;6.53;;
6725;SDS011;3400;48.506;11.692;2022-10-31T09:20:47;9.23;;;6.50;;
6725;SDS011;3400;48.506;11.692;2022-10-31T09:23:15;9.70;;;6.33;;
6725;SDS011;3400;48.506;11.692;2022-10-31T09:25:42;6.20;;;4.77;;
6725;SDS011;3400;48.506;11.692;2022-10-31T09:28:10;11.40;;;5.55;;
6725;SDS011;3400;48.506;11.692;2022-10-31T09:30:36;14.10;;;6.25;;
6725;SDS011;3400;48.506;11.692;2022-10-31T09:33:04;9.93;;;7.15;;
6725;SDS011;3400;48.506;11.692;2022-10-31T09:35:30;12.65;;;6.88;;
6725;SDS011;3400;48.506;11.692;2022-10-31T09:37:57;12.80;;;6.70;;
6725;SDS011;3400;48.506;11.692;2022-10-31T09:40:24;11.70;;;6.13;;
6725;SDS011;3400;48.506;11.692;2022-10-31T09:42:54;9.65;;;6.50;;
6725;SDS011;3400;48.506;11.692;2022-10-31T09:45:31;13.70;;;6.75;;
6725;SDS011;3400;48.506;11.692;2022-10-31T09:50:36;11.43;;;7.10;;
6725;SDS011;3400;48.506;11.692;2022-10-31T09:53:27;11.70;;;6.47;;
6725;SDS011;3400;48.506;11.692;2022-10-31T09:55:50;12.10;;;6.82;;
6725;SDS011;3400;48.506;11.692;2022-10-31T09:58:24;10.35;;;6.57;;
6725;SDS011;3400;48.506;11.692;2022-10-31T10:00:51;14.85;;;6.30;;
6725;SDS011;3400;48.506;11.692;2022-10-31T10:08:25;15.43;;;8.32;;
6725;SDS011;3400;48.506;11.692;2022-10-31T10:26:38;15.07;;;8.23;;
6725;SDS011;3400;48.506;11.692;2022-10-31T10:31:52;7.88;;;5.65;;
6725;SDS011;3400;48.506;11.692;2022-10-31T10:34:20;138.60;;;67.53;;
6725;SDS011;3400;48.506;11.692;2022-10-31T10:36:52;38.88;;;21.35;;
6725;SDS011;3400;48.506;11.692;2022-10-31T10:41:49;23.70;;;13.68;;
6725;SDS011;3400;48.506;11.692;2022-10-31T10:44:40;11.82;;;6.88;;
6725;SDS011;3400;48.506;11.692;2022-10-31T10:47:30;11.85;;;6.55;;
6725;SDS011;3400;48.506;11.692;2022-10-31T10:50:10;15.32;;;5.82;;
6725;SDS011;3400;48.506;11.692;2022-10-31T11:03:02;10.85;;;6.82;;
6725;SDS011;3400;48.506;11.692;2022-10-31T11:07:59;15.23;;;6.95;;
6725;SDS011;3400;48.506;11.692;2022-10-31T11:10:25;11.05;;;6.40;;
6725;SDS011;3400;48.506;11.692;2022-10-31T11:12:59;12.52;;;7.47;;
6725;SDS011;3400;48.506;11.692;2022-10-31T11:15:26;13.98;;;6.78;;
6725;SDS011;3400;48.506;11.692;2022-10-31T11:17:54;12.93;;;7.18;;
6725;SDS011;3400;48.506;11.692;2022-10-31T11:22:47;15.90;;;7.93;;
6725;SDS011;3400;48.506;11.692;2022-10-31T11:27:45;15.47;;;7.47;;
6725;SDS011;3400;48.506;11.692;2022-10-31T11:30:12;16.20;;;6.97;;
6725;SDS011;3400;48.506;11.692;2022-10-31T11:32:47;13.50;;;7.47;;
6725;SDS011;3400;48.506;11.692;2022-10-31T11:35:14;9.37;;;6.50;;
6725;SDS011;3400;48.506;11.692;2022-10-31T11:37:43;12.40;;;6.30;;
6725;SDS011;3400;48.506;11.692;2022-10-31T11:40:20;10.53;;;6.23;;
6725;SDS011;3400;48.506;11.692;2022-10-31T11:42:46;12.20;;;6.10;;
6725;SDS011;3400;48.506;11.692;2022-10-31T11:45:26;16.97;;;6.07;;
6725;SDS011;3400;48.506;11.692;2022-10-31T11:47:53;9.23;;;6.30;;
6725;SDS011;3400;48.506;11.692;2022-10-31T11:50:22;18.03;;;6.73;;
6725;SDS011;3400;48.506;11.692;2022-10-31T11:52:49;9.57;;;5.80;;
6725;SDS011;3400;48.506;11.692;2022-10-31T11:55:26;13.10;;;6.67;;
6725;SDS011;3400;48.506;11.692;2022-10-31T11:57:55;12.67;;;7.50;;
6725;SDS011;3400;48.506;11.692;2022-10-31T12:00:23;13.77;;;7.27;;
6725;SDS011;3400;48.506;11.692;2022-10-31T12:02:49;15.93;;;7.67;;
6725;SDS011;3400;48.506;11.692;2022-10-31T12:05:20;13.20;;;7.80;;
6725;SDS011;3400;48.506;11.692;2022-10-31T12:07:48;18.47;;;8.40;;
6725;SDS011;3400;48.506;11.692;2022-10-31T12:10:14;12.17;;;8.43;;
6725;SDS011;3400;48.506;11.692;2022-10-31T12:12:45;18.90;;;8.90;;
6725;SDS011;3400;48.506;11.692;2022-10-31T12:17:51;12.70;;;8.33;;
6725;SDS011;3400;48.506;11.692;2022-10-31T12:20:27;11.90;;;8.33;;
6725;SDS011;3400;48.506;11.692;2022-10-31T12:22:59;16.23;;;8.90;;
6725;SDS011;3400;48.506;11.692;2022-10-31T12:33:42;27.33;;;14.33;;
6725;SDS011;3400;48.506;11.692;2022-10-31T12:41:53;14.63;;;8.83;;
6725;SDS011;3400;48.506;11.692;2022-10-31T12:54:33;16.93;;;9.30;;
6725;SDS011;3400;48.506;11.692;2022-10-31T13:07:55;14.53;;;7.93;;
6725;SDS011;3400;48.506;11.692;2022-10-31T13:10:24;20.37;;;9.40;;
6725;SDS011;3400;48.506;11.692;2022-10-31T13:12:52;20.13;;;9.77;;
6725;SDS011;3400;48.506;11.692;2022-10-31T13:15:23;15.43;;;9.60;;
6725;SDS011;3400;48.506;11.692;2022-10-31T13:17:51;13.37;;;8.43;;
6725;SDS011;3400;48.506;11.692;2022-10-31T13:22:49;13.23;;;8.30;;
6725;SDS011;3400;48.506;11.692;2022-10-31T13:25:24;16.70;;;8.13;;
6725;SDS011;3400;48.506;11.692;2022-10-31T13:28:03;12.00;;;8.00;;
6725;SDS011;3400;48.506;11.692;2022-10-31T13:30:36;17.67;;;9.17;;
6725;SDS011;3400;48.506;11.692;2022-10-31T13:35:52;21.80;;;8.17;;
6725;SDS011;3400;48.506;11.692;2022-10-31T13:43:59;15.43;;;8.17;;
6725;SDS011;3400;48.506;11.692;2022-10-31T13:46:34;18.00;;;8.13;;
6725;SDS011;3400;48.506;11.692;2022-10-31T13:49:00;11.57;;;6.40;;
6725;SDS011;3400;48.506;11.692;2022-10-31T13:51:31;14.80;;;8.10;;
6725;SDS011;3400;48.506;11.692;2022-10-31T13:54:06;13.13;;;7.43;;
6725;SDS011;3400;48.506;11.692;2022-10-31T13:56:33;19.60;;;7.60;;
6725;SDS011;3400;48.506;11.692;2022-10-31T14:01:25;12.33;;;8.00;;
6725;SDS011;3400;48.506;11.692;2022-10-31T14:03:58;14.20;;;7.70;;
6725;SDS011;3400;48.506;11.692;2022-10-31T14:06:34;12.93;;;8.23;;
6725;SDS011;3400;48.506;11.692;2022-10-31T14:09:00;15.23;;;8.43;;
6725;SDS011;3400;48.506;11.692;2022-10-31T14:11:26;12.40;;;7.67;;
6725;SDS011;3400;48.506;11.692;2022-10-31T14:13:53;12.27;;;8.17;;
6725;SDS011;3400;48.506;11.692;2022-10-31T14:16:23;16.93;;;8.57;;
6725;SDS011;3400;48.506;11.692;2022-10-31T14:18:51;11.60;;;7.30;;
6725;SDS011;3400;48.506;11.692;2022-10-31T14:23:49;15.90;;;8.23;;
6725;SDS011;3400;48.506;11.692;2022-10-31T14:34:02;12.83;;;7.77;;
6725;SDS011;3400;48.506;11.692;2022-10-31T14:36:54;14.83;;;7.70;;
6725;SDS011;3400;48.506;11.692;2022-10-31T14:42:00;19.07;;;9.23;;
6725;SDS011;3400;48.506;11.692;2022-10-31T14:51:53;21.47;;;9.93;;
6725;SDS011;3400;48.506;11.692;2022-10-31T14:54:32;20.10;;;10.30;;
6725;SDS011;3400;48.506;11.692;2022-10-31T14:57:01;15.00;;;9.27;;
6725;SDS011;3400;48.506;11.692;2022-10-31T14:59:30;12.20;;;8.57;;
6725;SDS011;3400;48.506;11.692;2022-10-31T15:02:01;15.77;;;9.47;;
6725;SDS011;3400;48.506;11.692;2022-10-31T15:04:28;17.83;;;8.80;;
6725;SDS011;3400;48.506;11.692;2022-10-31T15:09:27;15.47;;;9.23;;
6725;SDS011;3400;48.506;11.692;2022-10-31T15:11:55;15.43;;;9.67;;
6725;SDS011;3400;48.506;11.692;2022-10-31T15:14:25;12.67;;;8.97;;
6725;SDS011;3400;48.506;11.692;2022-10-31T15:16:51;13.50;;;9.83;;
6725;SDS011;3400;48.506;11.692;2022-10-31T15:19:24;13.43;;;8.13;;
6725;SDS011;3400;48.506;11.692;2022-10-31T15:21:52;16.07;;;9.10;;
6725;SDS011;3400;48.506;11.692;2022-10-31T15:24:19;16.17;;;9.77;;
6725;SDS011;3400;48.506;11.692;2022-10-31T15:26:47;17.10;;;10.37;;
6725;SDS011;3400;48.506;11.692;2022-10-31T15:29:15;15.57;;;9.13;;
6725;SDS011;3400;48.506;11.692;2022-10-31T15:34:19;17.40;;;9.60;;
6725;SDS011;3400;48.506;11.692;2022-10-31T15:36:49;15.77;;;10.47;;
6725;SDS011;3400;48.506;11.692;2022-10-31T15:39:15;15.67;;;9.53;;
6725;SDS011;3400;48.506;11.692;2022-10-31T15:44:24;18.00;;;10.07;;
6725;SDS011;3400;48.506;11.692;2022-10-31T15:46:52;17.20;;;9.47;;
6725;SDS011;3400;48.506;11.692;2022-10-31T15:49:24;13.60;;;10.47;;
6725;SDS011;3400;48.506;11.692;2022-10-31T15:51:51;15.17;;;10.00;;
6725;SDS011;3400;48.506;11.692;2022-10-31T15:54:18;16.00;;;10.37;;
6725;SDS011;3400;48.506;11.692;2022-10-31T15:56:44;17.00;;;10.20;;
6725;SDS011;3400;48.506;11.692;2022-10-31T15:59:20;19.27;;;10.63;;
6725;SDS011;3400;48.506;11.692;2022-10-31T16:02:03;18.77;;;10.47;;
6725;SDS011;3400;48.506;11.692;2022-10-31T16:04:34;18.33;;;10.07;;
6725;SDS011;3400;48.506;11.692;2022-10-31T16:07:02;18.67;;;11.80;;
6725;SDS011;3400;48.506;11.692;2022-10-31T16:09:28;19.63;;;11.03;;
6725;SDS011;3400;48.506;11.692;2022-10-31T16:11:55;24.00;;;11.87;;
6725;SDS011;3400;48.506;11.692;2022-10-31T16:14:23;19.73;;;12.87;;
6725;SDS011;3400;48.506;11.692;2022-10-31T16:16:51;14.67;;;11.90;;
6725;SDS011;3400;48.506;11.692;2022-10-31T16:19:23;23.93;;;13.10;;
6725;SDS011;3400;48.506;11.692;2022-10-31T16:21:52;21.27;;;11.47;;
6725;SDS011;3400;48.506;11.692;2022-10-31T16:26:48;15.47;;;11.47;;
6725;SDS011;3400;48.506;11.692;2022-10-31T16:29:31;17.27;;;10.47;;
6725;SDS011;3400;48.506;11.692;2022-10-31T16:31:58;18.93;;;10.90;;
6725;SDS011;3400;48.506;11.692;2022-10-31T16:34:24;18.80;;;11.80;;
6725;SDS011;3400;48.506;11.692;2022-10-31T16:36:50;21.93;;;12.00;;
6725;SDS011;3400;48.506;11.692;2022-10-31T16:39:16;16.23;;;10.80;;
6725;SDS011;3400;48.506;11.692;2022-10-31T16:41:46;20.03;;;13.73;;
6725;SDS011;3400;48.506;11.692;2022-10-31T16:44:21;16.77;;;12.40;;
6725;SDS011;3400;48.506;11.692;2022-10-31T16:46:47;17.90;;;10.37;;
6725;SDS011;3400;48.506;11.692;2022-10-31T16:49:14;25.13;;;15.53;;
6725;SDS011;3400;48.506;11.692;2022-10-31T16:51:40;100.97;;;83.93;;
6725;SDS011;3400;48.506;11.692;2022-10-31T16:54:07;134.60;;;113.10;;
6725;SDS011;3400;48.506;11.692;2022-10-31T16:56:35;94.23;;;83.93;;
6725;SDS011;3400;48.506;11.692;2022-10-31T16:59:03;46.00;;;37.13;;
6725;SDS011;3400;48.506;11.692;2022-10-31T17:01:30;31.23;;;21.90;;
6725;SDS011;3400;48.506;11.692;2022-10-31T17:03:56;19.53;;;15.87;;
6725;SDS011;3400;48.506;11.692;2022-10-31T17:06:22;31.67;;;20.50;;
6725;SDS011;3400;48.506;11.692;2022-10-31T17:08:48;38.40;;;23.83;;
6725;SDS011;3400;48.506;11.692;2022-10-31T17:11:15;51.60;;;27.87;;
6725;SDS011;3400;48.506;11.692;2022-10-31T17:13:42;65.07;;;32.30;;
6725;SDS011;3400;48.506;11.692;2022-10-31T17:16:08;76.43;;;36.53;;
6725;SDS011;3400;48.506;11.692;2022-10-31T17:18:34;62.50;;;34.17;;
6725;SDS011;3400;48.506;11.692;2022-10-31T17:21:01;72.83;;;38.37;;
6725;SDS011;3400;48.506;11.692;2022-10-31T17:23:28;94.83;;;44.00;;
6725;SDS011;3400;48.506;11.692;2022-10-31T17:26:10;90.10;;;43.70;;
6725;SDS011;3400;48.506;11.692;2022-10-31T17:28:36;61.90;;;32.97;;
6725;SDS011;3400;48.506;11.692;2022-10-31T17:31:02;51.60;;;28.67;;
6725;SDS011;3400;48.506;11.692;2022-10-31T17:33:28;58.43;;;29.57;;
6725;SDS011;3400;48.506;11.692;2022-10-31T17:35:54;46.60;;;27.87;;